Aviation Digital Data Service (ADDS)

Output produced by METARs form (2328 UTC 23 March 2019)
found at http://www.aviationweather.gov/metar/data/
 
Forecast for: UTTT (TASKENT/YUZNI , UZ)
Text: TAF UTTT 232300Z 2400/2424 06008KT 7000 NSC
Forecast period: 0000 UTC 24 March 2019 to 0000 UTC 25 March 2019
Forecast type: FROM: standard forecast or significant change
Winds: from the ENE (60 degrees) at 9 MPH (8 knots; 4.1 m/s)
Visibility: 4 miles (7 km)
Ceiling: unknown
Clouds: missing
Weather: no significant weather forecast for this period
Text: TEMPO 2400/2404 VRB02KT 0500 FG VV002
Forecast period: 0000 to 0400 UTC 24 March 2019
Forecast type: TEMPORARY: The following changes expected for less than half the time period
Winds: variable direction winds at 2 MPH (2 knots; 1.0 m/s)
Visibility: 0.31 miles (0.50 km)
Ceiling: indefinite ceiling with vertical visibility of 200 feet AGL
Clouds: obscured sky
Weather: FG  (fog)
Text: TEMPO 2408/2414 FEW050CB
Forecast period: 0800 to 1400 UTC 24 March 2019
Forecast type: TEMPORARY: The following changes expected for less than half the time period
Visibility: missing
Ceiling: at least 12,000 feet AGL
Clouds: few clouds at 5000 feet AGL
Weather: no significant weather forecast for this period